Forside
METAR-TAF:

METAR-TAF

Lufthavne :

Moroni, Comorerne

Breddekreds: 11-32S, længdekreds: 043-16E, højde: 29 m

Aktuelle vejr

Denne rapport blev lavet for 43 minutter siden, kl. 16:00 UTC
Vind 11 kt fra sydsydøst
Temperatur 28°C
Fugtighed 70%
Tryk 1015 hPa
Sigt 10 km eller mere
Spredte skyer i en højde af 2300 ft

METAR: FMCH 161600Z 15011KT 9999 SCT023 28/22 Q1015 NOSIG

Tid: 19:43 (16:43 UTC)

Vejrudsigter

Denne rapport blev lavet for 9 timer og 21 minutter siden, kl. 07:22 UTC
Foreløbig gælder fra 16 på 07 UTC til 17 på 12 UTC
Vind 15 kt fra øst
Sigt 10 km eller mere
Nogle få skyer i en højde af 2000 ft
Sandsynlighed 30% :
Midlertidig
fra 16 på 09 UTC til 16 på 15 UTC
Vind 15 kt fra sydvest
ændring
fra 16 på 16 UTC til 16 på 18 UTC
Vind 4 kt fra øst
ændring
fra 17 på 06 UTC til 17 på 08 UTC
Vind 12 kt fra vestsydvest

TAF: FMCH 160722Z 1607/1712 10015KT 9999 FEW020 PROB30 TEMPO 1609/1615 22015KT BECMG 1616/1618 10004KT BECMG 1706/1708 24012KT

Vejrobservationer og prognoser fra mere end 4000 lufthavne (METAR og TAF).

De gule og røde prikker repræsenterer de meteorologiske stationer.

Flyt musen over at se navnet på stationen.

Så klik over at se vejr observationer og prognoser.

At skifte det kort: Klik på de grønne knapper med et sort kors for at zoome ind; på den grønne knap med en bindestreg for at zoome ud; eller på de grønne pile for tilstødende kort.


METAR-TAF: